Time;durP1;ratioP1;P1;durP2;ratioP2;P2;SDS_P1;SDS_P2;PMS_P1;PMS_P2;Temp;Humidity;BMP_temperature;BMP_pressure;BME280_temperature;BME280_humidity;BME280_pressure;Samples;Min_cycle;Max_cycle;Signal;HPM_P1;HPM_P2
2022/09/14 00:00:15;;;;;;;6.30;5.67;;;;;;;;;;5083950;28;20207;-78
2022/09/14 00:03:19;;;;;;;8.93;6.33;;;;;;;;;;5081841;28;20180;-78
2022/09/14 00:06:24;;;;;;;9.97;6.07;;;;;;;;;;5083273;28;20194;-78
2022/09/14 00:09:28;;;;;;;6.63;5.80;;;;;;;;;;5081049;28;20196;-78
2022/09/14 00:12:33;;;;;;;8.53;6.10;;;;;;;;;;5083925;28;20215;-79
2022/09/14 00:15:40;;;;;;;6.27;5.60;;;;;;;;;;5070170;28;20639;-78
2022/09/14 00:18:48;;;;;;;6.03;5.20;;;;;;;;;;5070550;28;20172;-79
2022/09/14 00:21:55;;;;;;;5.77;5.27;;;;;;;;;;5083758;28;20219;-79
2022/09/14 00:24:59;;;;;;;7.57;5.07;;;;;;;;;;5082790;28;20179;-78
2022/09/14 00:28:03;;;;;;;5.70;4.77;;;;;;;;;;5083635;28;20231;-78
2022/09/14 00:31:09;;;;;;;7.83;5.97;;;;;;;;;;5071447;28;20223;-78
2022/09/14 00:34:15;;;;;;;7.13;5.37;;;;;;;;;;5082137;28;20535;-78
2022/09/14 00:37:19;;;;;;;6.13;5.60;;;;;;;;;;5081762;28;20168;-78
2022/09/14 00:40:24;;;;;;;9.23;5.57;;;;;;;;;;5069826;28;20512;-78
2022/09/14 00:43:28;;;;;;;9.33;6.10;;;;;;;;;;5057837;28;20179;-78
2022/09/14 00:46:39;;;;;;;8.40;5.90;;;;;;;;;;5081334;28;20179;-78
2022/09/14 00:49:44;;;;;;;7.17;5.40;;;;;;;;;;5081038;28;20180;-78
2022/09/14 00:52:49;;;;;;;6.43;5.57;;;;;;;;;;5081855;28;20559;-78
2022/09/14 00:55:53;;;;;;;6.00;5.40;;;;;;;;;;5081803;28;20199;-79
2022/09/14 00:59:03;;;;;;;6.77;5.10;;;;;;;;;;5082373;28;20171;-79
2022/09/14 01:02:10;;;;;;;6.00;5.20;;;;;;;;;;5082196;28;20219;-78
2022/09/14 01:05:15;;;;;;;9.10;5.10;;;;;;;;;;5081505;28;20179;-79
2022/09/14 01:08:28;;;;;;;7.03;5.27;;;;;;;;;;5070773;28;20204;-78
2022/09/14 01:11:43;;;;;;;7.50;5.77;;;;;;;;;;5082396;28;20222;-78
2022/09/14 01:15:10;;;;;;;8.30;5.97;;;;;;;;;;5080808;28;20179;-78
2022/09/14 01:18:31;;;;;;;7.27;5.47;;;;;;;;;;5069593;28;20179;-78
2022/09/14 01:21:37;;;;;;;8.07;5.93;;;;;;;;;;5082374;28;20551;-79
2022/09/14 01:24:47;;;;;;;6.03;5.43;;;;;;;;;;5069860;28;20618;-78
2022/09/14 01:27:55;;;;;;;9.07;5.63;;;;;;;;;;5082213;28;20203;-79
2022/09/14 01:31:02;;;;;;;8.73;5.77;;;;;;;;;;5085530;28;20180;-78
2022/09/14 01:34:11;;;;;;;7.37;5.13;;;;;;;;;;5084575;28;20176;-79
2022/09/14 01:37:21;;;;;;;8.67;5.93;;;;;;;;;;5073352;28;20183;-78
2022/09/14 01:40:32;;;;;;;6.10;5.50;;;;;;;;;;5074101;28;20631;-79
2022/09/14 01:43:50;;;;;;;6.73;5.03;;;;;;;;;;5084816;28;20655;-78
2022/09/14 01:47:01;;;;;;;9.67;5.90;;;;;;;;;;5086018;28;20180;-78
2022/09/14 01:50:11;;;;;;;9.77;5.97;;;;;;;;;;5087881;28;20180;-78
2022/09/14 01:53:28;;;;;;;7.97;6.00;;;;;;;;;;5086283;28;20184;-79
2022/09/14 01:56:40;;;;;;;6.03;5.43;;;;;;;;;;5085034;28;20203;-79
2022/09/14 01:59:47;;;;;;;7.80;5.60;;;;;;;;;;5084477;28;20179;-78
2022/09/14 02:03:05;;;;;;;9.67;5.97;;;;;;;;;;5085954;28;20214;-78
2022/09/14 02:06:19;;;;;;;6.97;5.17;;;;;;;;;;5085277;28;20184;-78
2022/09/14 02:09:25;;;;;;;8.63;6.10;;;;;;;;;;5084481;28;20223;-78
2022/09/14 02:12:30;;;;;;;9.43;5.70;;;;;;;;;;5073351;28;20207;-78
2022/09/14 02:15:35;;;;;;;6.83;5.53;;;;;;;;;;5085696;28;20179;-79
2022/09/14 02:18:42;;;;;;;8.40;5.20;;;;;;;;;;5084870;28;20172;-78
2022/09/14 02:21:46;;;;;;;6.93;5.70;;;;;;;;;;5085163;28;20207;-79
2022/09/14 02:24:51;;;;;;;5.43;4.77;;;;;;;;;;5072474;28;20180;-78
2022/09/14 02:27:55;;;;;;;7.00;5.60;;;;;;;;;;5061444;28;20211;-78
2022/09/14 02:31:11;;;;;;;6.07;4.70;;;;;;;;;;5083553;28;20508;-78
2022/09/14 02:34:29;;;;;;;10.87;5.30;;;;;;;;;;5084878;28;20192;-79
2022/09/14 02:37:48;;;;;;;7.03;6.33;;;;;;;;;;5084710;28;20302;-78
2022/09/14 02:41:03;;;;;;;7.03;5.30;;;;;;;;;;5082428;28;20179;-79
2022/09/14 02:44:21;;;;;;;9.03;5.90;;;;;;;;;;5084342;28;20183;-78
2022/09/14 02:48:10;;;;;;;6.37;5.77;;;;;;;;;;5084352;28;20180;-78
2022/09/14 02:51:27;;;;;;;9.97;5.83;;;;;;;;;;5071098;28;20219;-78
2022/09/14 02:54:40;;;;;;;6.90;5.33;;;;;;;;;;5072015;28;20179;-78
2022/09/14 02:58:08;;;;;;;8.13;5.90;;;;;;;;;;5072056;28;20183;-78
2022/09/14 03:01:15;;;;;;;6.60;5.30;;;;;;;;;;5083979;28;20215;-79
2022/09/14 03:04:19;;;;;;;8.93;5.73;;;;;;;;;;5084550;28;20172;-78
2022/09/14 03:07:23;;;;;;;7.50;5.77;;;;;;;;;;5084453;28;20175;-78
2022/09/14 03:10:28;;;;;;;7.23;6.03;;;;;;;;;;5085275;28;20176;-78
2022/09/14 03:13:36;;;;;;;6.47;5.60;;;;;;;;;;5084178;28;20195;-78
2022/09/14 03:16:40;;;;;;;10.13;5.30;;;;;;;;;;5072556;28;20179;-79
2022/09/14 03:19:44;;;;;;;7.57;4.70;;;;;;;;;;5071580;28;20180;-78
2022/09/14 03:22:49;;;;;;;6.40;5.60;;;;;;;;;;5081586;28;20215;-78
2022/09/14 03:25:53;;;;;;;11.20;5.77;;;;;;;;;;5071974;28;20183;-78
2022/09/14 03:28:58;;;;;;;10.37;6.13;;;;;;;;;;5067253;28;20207;-79
2022/09/14 03:32:02;;;;;;;12.70;7.07;;;;;;;;;;5080173;28;20215;-79
2022/09/14 03:35:07;;;;;;;11.37;7.10;;;;;;;;;;5069412;28;20191;-80
2022/09/14 03:38:12;;;;;;;11.97;6.73;;;;;;;;;;5083267;28;20192;-80
2022/09/14 03:41:17;;;;;;;12.33;6.97;;;;;;;;;;5083552;28;20223;-79
2022/09/14 03:44:22;;;;;;;8.47;7.57;;;;;;;;;;5073570;28;20639;-79
2022/09/14 03:47:27;;;;;;;9.33;7.73;;;;;;;;;;5083727;28;20179;-80
2022/09/14 03:50:31;;;;;;;9.83;7.50;;;;;;;;;;5072682;28;20654;-80
2022/09/14 03:53:36;;;;;;;10.17;7.30;;;;;;;;;;5084874;28;20180;-79
2022/09/14 03:56:40;;;;;;;10.47;7.20;;;;;;;;;;5084501;28;20586;-79
2022/09/14 03:59:45;;;;;;;13.80;8.90;;;;;;;;;;5084982;28;20175;-80
2022/09/14 04:02:49;;;;;;;18.00;9.30;;;;;;;;;;5085247;28;20215;-80
2022/09/14 04:05:54;;;;;;;11.50;8.90;;;;;;;;;;5083597;28;20199;-80
2022/09/14 04:08:59;;;;;;;16.90;8.87;;;;;;;;;;5084454;28;20682;-80
2022/09/14 04:12:03;;;;;;;13.23;8.03;;;;;;;;;;5061438;28;20211;-80
2022/09/14 04:15:08;;;;;;;14.90;9.07;;;;;;;;;;5084494;28;20188;-80
2022/09/14 04:18:12;;;;;;;10.13;8.13;;;;;;;;;;5072171;28;20184;-79
2022/09/14 04:21:19;;;;;;;10.47;8.77;;;;;;;;;;5084675;28;20215;-79
2022/09/14 04:24:23;;;;;;;13.50;8.43;;;;;;;;;;5085075;28;20176;-80
2022/09/14 04:27:28;;;;;;;17.77;8.63;;;;;;;;;;5082360;28;20176;-80
2022/09/14 04:30:33;;;;;;;10.67;8.83;;;;;;;;;;5083466;28;20176;-80
2022/09/14 04:33:39;;;;;;;9.97;8.33;;;;;;;;;;5085358;28;20176;-80
2022/09/14 04:36:43;;;;;;;13.53;10.03;;;;;;;;;;5086188;28;20184;-79
2022/09/14 04:39:48;;;;;;;13.13;10.03;;;;;;;;;;5074705;28;20182;-79
2022/09/14 04:42:52;;;;;;;16.77;10.63;;;;;;;;;;5085674;28;20577;-79
2022/09/14 04:46:05;;;;;;;16.40;10.47;;;;;;;;;;5086657;28;20534;-79
2022/09/14 04:49:09;;;;;;;16.93;10.73;;;;;;;;;;5095409;28;20220;-80
2022/09/14 04:52:13;;;;;;;15.60;9.53;;;;;;;;;;5080544;28;20286;-80
2022/09/14 04:55:17;;;;;;;17.10;10.00;;;;;;;;;;5080301;28;20207;-80
2022/09/14 04:58:21;;;;;;;12.20;9.90;;;;;;;;;;5070408;28;20539;-79
2022/09/14 05:01:29;;;;;;;15.73;10.07;;;;;;;;;;5083402;28;20219;-79
2022/09/14 05:04:33;;;;;;;17.93;11.87;;;;;;;;;;5093947;28;20186;-80
2022/09/14 05:07:37;;;;;;;12.37;10.67;;;;;;;;;;5082420;28;20657;-80
2022/09/14 05:10:41;;;;;;;10.60;9.53;;;;;;;;;;5082887;28;20657;-80
2022/09/14 05:13:46;;;;;;;15.23;10.80;;;;;;;;;;5079609;28;20191;-80
2022/09/14 05:16:49;;;;;;;12.67;10.30;;;;;;;;;;5077013;28;20202;-79
2022/09/14 05:19:53;;;;;;;13.00;10.07;;;;;;;;;;5071122;28;20201;-80
2022/09/14 05:22:58;;;;;;;14.27;9.97;;;;;;;;;;5080895;28;20214;-81
2022/09/14 05:26:03;;;;;;;10.83;9.57;;;;;;;;;;5055364;28;20179;-78
2022/09/14 05:29:11;;;;;;;12.93;10.43;;;;;;;;;;5099461;28;20575;-81
2022/09/14 05:32:15;;;;;;;13.90;11.67;;;;;;;;;;5098313;28;20222;-81
2022/09/14 05:35:20;;;;;;;13.83;11.93;;;;;;;;;;5097620;28;20182;-81
2022/09/14 05:38:24;;;;;;;11.93;10.60;;;;;;;;;;5084357;28;20182;-78
2022/09/14 05:41:28;;;;;;;13.77;10.97;;;;;;;;;;5096790;28;20275;-80
2022/09/14 05:44:33;;;;;;;12.67;11.17;;;;;;;;;;5096149;28;20205;-81
2022/09/14 05:47:37;;;;;;;13.40;9.77;;;;;;;;;;5077961;28;20186;-78
2022/09/14 05:50:42;;;;;;;11.60;9.93;;;;;;;;;;5080802;28;20203;-79
2022/09/14 05:53:50;;;;;;;12.40;9.57;;;;;;;;;;5088412;28;20198;-79
2022/09/14 05:56:54;;;;;;;12.30;10.33;;;;;;;;;;5100475;28;20199;-78
2022/09/14 05:59:58;;;;;;;11.47;9.53;;;;;;;;;;5099649;28;20186;-78
2022/09/14 06:03:03;;;;;;;12.93;9.53;;;;;;;;;;5097089;28;20214;-79
2022/09/14 06:06:09;;;;;;;11.80;9.73;;;;;;;;;;5072979;28;20646;-78
2022/09/14 06:09:14;;;;;;;10.00;9.00;;;;;;;;;;5075450;28;20227;-79
2022/09/14 06:12:19;;;;;;;11.27;9.97;;;;;;;;;;5077739;28;20215;-81
2022/09/14 06:15:23;;;;;;;16.17;9.80;;;;;;;;;;5066324;28;20631;-81
2022/09/14 06:18:30;;;;;;;10.70;9.57;;;;;;;;;;5081848;28;20503;-81
2022/09/14 06:21:34;;;;;;;13.13;10.23;;;;;;;;;;5079085;28;20211;-80
2022/09/14 06:24:38;;;;;;;12.10;9.03;;;;;;;;;;5067164;28;20179;-79
2022/09/14 06:27:43;;;;;;;10.27;9.03;;;;;;;;;;5081338;28;20512;-79
2022/09/14 06:30:47;;;;;;;10.23;9.20;;;;;;;;;;5080027;28;20686;-79
2022/09/14 06:33:52;;;;;;;10.03;9.00;;;;;;;;;;5091602;28;20638;-78
2022/09/14 06:36:55;;;;;;;13.53;12.13;;;;;;;;;;5068224;28;20175;-79
2022/09/14 06:40:03;;;;;;;13.73;10.77;;;;;;;;;;5078765;28;20257;-78
2022/09/14 06:43:09;;;;;;;16.23;10.53;;;;;;;;;;5067817;28;20657;-79
2022/09/14 06:46:18;;;;;;;14.23;11.20;;;;;;;;;;5079061;28;20190;-79
2022/09/14 06:49:21;;;;;;;14.33;10.57;;;;;;;;;;5079858;28;20242;-80
2022/09/14 06:52:26;;;;;;;14.40;10.63;;;;;;;;;;5081429;28;20226;-79
2022/09/14 06:55:30;;;;;;;11.17;10.03;;;;;;;;;;5081373;28;20685;-79
2022/09/14 06:58:35;;;;;;;13.33;10.57;;;;;;;;;;5082709;28;20187;-80
2022/09/14 07:01:40;;;;;;;11.43;8.37;;;;;;;;;;5080818;28;20712;-79
2022/09/14 07:04:44;;;;;;;11.63;8.50;;;;;;;;;;5082285;28;20179;-79
2022/09/14 07:07:52;;;;;;;8.80;7.40;;;;;;;;;;5081142;28;20175;-80
2022/09/14 07:10:57;;;;;;;8.37;7.40;;;;;;;;;;5081473;28;20207;-80
2022/09/14 07:14:02;;;;;;;5.70;5.20;;;;;;;;;;5080246;28;20180;-80
2022/09/14 07:17:06;;;;;;;6.40;4.70;;;;;;;;;;5081386;28;20634;-79
2022/09/14 07:20:10;;;;;;;5.93;4.80;;;;;;;;;;5080757;28;20191;-80
2022/09/14 07:23:14;;;;;;;5.20;4.70;;;;;;;;;;5080258;28;20179;-79
2022/09/14 07:26:20;;;;;;;6.60;4.70;;;;;;;;;;5080819;28;20183;-80
2022/09/14 07:29:24;;;;;;;6.60;4.37;;;;;;;;;;5080175;28;20207;-79
2022/09/14 07:32:28;;;;;;;5.73;3.77;;;;;;;;;;5082600;28;20690;-79
2022/09/14 07:35:32;;;;;;;5.53;3.37;;;;;;;;;;5080974;28;20183;-80
2022/09/14 07:38:37;;;;;;;4.10;3.70;;;;;;;;;;5083378;28;20183;-79
2022/09/14 07:41:42;;;;;;;5.17;3.10;;;;;;;;;;5083422;28;20211;-80
2022/09/14 07:44:46;;;;;;;6.50;3.50;;;;;;;;;;5084575;28;20183;-79
2022/09/14 07:47:50;;;;;;;6.57;3.37;;;;;;;;;;5080385;28;20183;-79
2022/09/14 07:51:02;;;;;;;4.30;3.13;;;;;;;;;;5079533;28;20214;-79
2022/09/14 07:54:10;;;;;;;4.43;2.93;;;;;;;;;;5094879;28;20627;-79
2022/09/14 07:57:15;;;;;;;5.17;2.60;;;;;;;;;;5082122;28;20195;-79
2022/09/14 08:00:20;;;;;;;8.60;2.70;;;;;;;;;;5084533;28;20187;-79
2022/09/14 08:03:25;;;;;;;3.53;2.53;;;;;;;;;;5082394;28;20179;-79
2022/09/14 08:06:29;;;;;;;9.47;2.93;;;;;;;;;;5081849;28;20183;-79
2022/09/14 08:09:34;;;;;;;4.43;1.77;;;;;;;;;;5083942;28;20215;-79
2022/09/14 08:12:38;;;;;;;5.23;1.80;;;;;;;;;;5083416;28;20210;-79
2022/09/14 08:15:42;;;;;;;3.97;2.03;;;;;;;;;;5082830;28;20183;-79
2022/09/14 08:18:51;;;;;;;3.13;1.93;;;;;;;;;;5083434;28;20199;-79
2022/09/14 08:21:55;;;;;;;5.37;2.07;;;;;;;;;;5082887;28;20207;-80
2022/09/14 08:24:59;;;;;;;6.67;2.00;;;;;;;;;;5083817;28;20184;-79
2022/09/14 08:28:04;;;;;;;4.00;2.10;;;;;;;;;;5085910;28;20195;-80
2022/09/14 08:31:14;;;;;;;4.27;2.00;;;;;;;;;;5085573;28;20693;-79
2022/09/14 08:34:19;;;;;;;3.63;1.80;;;;;;;;;;5085370;28;20183;-80
2022/09/14 08:37:23;;;;;;;5.83;2.00;;;;;;;;;;5084512;28;20187;-79
2022/09/14 08:40:28;;;;;;;4.10;1.90;;;;;;;;;;5083950;28;20176;-80
2022/09/14 08:43:32;;;;;;;5.17;2.33;;;;;;;;;;5078514;28;20199;-80
2022/09/14 08:46:43;;;;;;;4.27;1.97;;;;;;;;;;5066693;28;20195;-79
2022/09/14 08:49:57;;;;;;;4.87;1.97;;;;;;;;;;5078134;28;20220;-79
2022/09/14 08:53:01;;;;;;;3.73;1.47;;;;;;;;;;5066156;28;20688;-79
2022/09/14 08:56:27;;;;;;;3.57;1.60;;;;;;;;;;5064954;28;20680;-80
2022/09/14 08:59:50;;;;;;;5.07;1.67;;;;;;;;;;5077710;28;20258;-79
2022/09/14 09:03:11;;;;;;;5.67;1.70;;;;;;;;;;5064875;28;20249;-79
2022/09/14 09:06:22;;;;;;;2.93;1.40;;;;;;;;;;5067071;28;20190;-78
2022/09/14 09:09:38;;;;;;;3.07;1.63;;;;;;;;;;5077230;28;20196;-79
2022/09/14 09:12:49;;;;;;;6.00;1.70;;;;;;;;;;5066683;28;20213;-78
2022/09/14 09:15:58;;;;;;;7.00;1.80;;;;;;;;;;5079190;28;20176;-79
2022/09/14 09:19:10;;;;;;;8.63;1.80;;;;;;;;;;5078640;28;20174;-78
2022/09/14 09:22:20;;;;;;;5.93;2.27;;;;;;;;;;5079545;28;20212;-78
2022/09/14 09:25:29;;;;;;;4.77;1.83;;;;;;;;;;5078083;28;20208;-79
2022/09/14 09:28:33;;;;;;;3.13;1.60;;;;;;;;;;5076296;28;20626;-79
2022/09/14 09:31:46;;;;;;;4.80;2.03;;;;;;;;;;5078242;28;20231;-79
2022/09/14 09:35:22;;;;;;;7.53;2.00;;;;;;;;;;5068409;28;20209;-79
2022/09/14 09:38:36;;;;;;;3.90;1.90;;;;;;;;;;5066130;28;20185;-80
2022/09/14 09:41:51;;;;;;;4.47;1.90;;;;;;;;;;5065019;28;20209;-79
2022/09/14 09:44:57;;;;;;;5.67;2.00;;;;;;;;;;5077621;28;20181;-79
2022/09/14 09:48:08;;;;;;;2.67;1.77;;;;;;;;;;5077612;28;20179;-80
2022/09/14 09:51:16;;;;;;;5.03;1.70;;;;;;;;;;5079610;28;20226;-80
2022/09/14 09:54:27;;;;;;;7.68;2.00;;;;;;;;;;5082634;28;20186;-80
2022/09/14 09:57:34;;;;;;;5.22;1.98;;;;;;;;;;5081316;28;20185;-80
2022/09/14 10:00:38;;;;;;;2.42;1.55;;;;;;;;;;5069685;28;20178;-79
2022/09/14 10:03:50;;;;;;;5.45;1.70;;;;;;;;;;5082661;28;20174;-80
2022/09/14 10:06:56;;;;;;;4.43;1.70;;;;;;;;;;5081777;28;20183;-80
2022/09/14 10:10:07;;;;;;;2.20;1.50;;;;;;;;;;5078867;28;20203;-80
2022/09/14 10:13:33;;;;;;;4.95;1.67;;;;;;;;;;5077740;28;20181;-81
2022/09/14 10:16:41;;;;;;;4.93;1.85;;;;;;;;;;5076268;28;20191;-81
2022/09/14 10:19:53;;;;;;;3.45;1.40;;;;;;;;;;5076094;28;20201;-81
2022/09/14 10:23:15;;;;;;;5.15;1.77;;;;;;;;;;5077365;28;20218;-81
2022/09/14 10:26:24;;;;;;;4.28;1.73;;;;;;;;;;5064970;28;20187;-81
2022/09/14 10:29:38;;;;;;;2.53;1.60;;;;;;;;;;5076574;28;20194;-80
2022/09/14 10:32:52;;;;;;;4.03;1.50;;;;;;;;;;5076901;28;20218;-80
2022/09/14 10:36:24;;;;;;;4.70;1.58;;;;;;;;;;5066738;28;20187;-81
2022/09/14 10:39:38;;;;;;;4.93;1.48;;;;;;;;;;5077458;28;20224;-80
2022/09/14 10:43:00;;;;;;;4.63;1.55;;;;;;;;;;5077589;28;20211;-80
2022/09/14 10:46:09;;;;;;;5.28;1.80;;;;;;;;;;5066327;28;20187;-80
2022/09/14 10:49:41;;;;;;;7.70;1.90;;;;;;;;;;5077647;28;20187;-81
2022/09/14 10:52:51;;;;;;;2.30;1.48;;;;;;;;;;5065881;28;20214;-80
2022/09/14 10:56:09;;;;;;;5.35;1.77;;;;;;;;;;5065352;28;20198;-81
2022/09/14 10:59:23;;;;;;;7.70;1.80;;;;;;;;;;5076603;28;20198;-81
2022/09/14 11:02:37;;;;;;;3.67;1.60;;;;;;;;;;5074992;28;20211;-81
2022/09/14 11:06:03;;;;;;;4.35;1.77;;;;;;;;;;5065024;28;20185;-81
2022/09/14 11:09:20;;;;;;;4.03;1.77;;;;;;;;;;5065020;28;20203;-81
2022/09/14 11:12:54;;;;;;;5.03;1.60;;;;;;;;;;5066401;28;20222;-83
2022/09/14 11:16:18;;;;;;;8.63;1.50;;;;;;;;;;5077895;28;20178;-81
2022/09/14 11:20:00;;;;;;;6.07;1.70;;;;;;;;;;5065995;28;20519;-81
2022/09/14 11:23:27;;;;;;;6.90;1.63;;;;;;;;;;5065989;28;20214;-81
2022/09/14 11:26:44;;;;;;;3.95;1.50;;;;;;;;;;5078060;28;20177;-80
2022/09/14 11:29:54;;;;;;;24.88;2.72;;;;;;;;;;5077293;28;20180;-81
2022/09/14 11:33:19;;;;;;;3.80;1.50;;;;;;;;;;5063867;28;20585;-81
2022/09/14 11:36:35;;;;;;;5.78;1.80;;;;;;;;;;5073289;28;20191;-81
2022/09/14 11:39:44;;;;;;;2.78;1.48;;;;;;;;;;5075136;28;20176;-81
2022/09/14 11:43:01;;;;;;;1.95;1.50;;;;;;;;;;5075628;28;20554;-81
2022/09/14 11:46:40;;;;;;;5.55;1.77;;;;;;;;;;5074795;28;20189;-81
2022/09/14 11:50:03;;;;;;;4.97;1.73;;;;;;;;;;5086224;28;20557;-81
2022/09/14 11:53:14;;;;;;;3.00;1.50;;;;;;;;;;5074365;28;20328;-81
2022/09/14 11:56:25;;;;;;;3.80;1.40;;;;;;;;;;5074456;28;20210;-81
2022/09/14 11:59:34;;;;;;;4.15;1.42;;;;;;;;;;5074966;28;20196;-81
2022/09/14 12:02:41;;;;;;;9.80;2.10;;;;;;;;;;5074337;28;20210;-81
2022/09/14 12:05:47;;;;;;;4.78;1.42;;;;;;;;;;5062757;28;20188;-81
2022/09/14 12:08:51;;;;;;;7.65;1.67;;;;;;;;;;5074301;28;20182;-81
2022/09/14 12:11:57;;;;;;;11.65;1.80;;;;;;;;;;5062369;28;20230;-81
2022/09/14 12:15:11;;;;;;;3.38;1.80;;;;;;;;;;5061498;28;20526;-81
2022/09/14 12:18:21;;;;;;;3.03;1.50;;;;;;;;;;5062822;28;20176;-81
2022/09/14 12:21:25;;;;;;;7.07;2.30;;;;;;;;;;5062243;28;20214;-80
2022/09/14 12:24:38;;;;;;;5.80;1.90;;;;;;;;;;5062143;28;20187;-81
2022/09/14 12:27:44;;;;;;;9.85;1.92;;;;;;;;;;5073448;28;20656;-82
2022/09/14 12:30:49;;;;;;;3.58;1.50;;;;;;;;;;5073445;28;20209;-82
2022/09/14 12:34:32;;;;;;;5.72;1.50;;;;;;;;;;5050420;28;20198;-82
2022/09/14 12:37:36;;;;;;;5.82;1.65;;;;;;;;;;5040317;28;20191;-81
2022/09/14 12:40:40;;;;;;;3.20;1.55;;;;;;;;;;5052394;28;20175;-81
2022/09/14 12:43:47;;;;;;;2.95;1.55;;;;;;;;;;5085265;28;20186;-81
2022/09/14 12:46:53;;;;;;;8.00;1.55;;;;;;;;;;5061901;28;20186;-81
2022/09/14 12:50:04;;;;;;;4.80;1.40;;;;;;;;;;5062056;28;20287;-81
2022/09/14 12:53:17;;;;;;;5.93;2.13;;;;;;;;;;5072999;28;20214;-81
2022/09/14 12:56:30;;;;;;;8.02;1.73;;;;;;;;;;5073139;28;20199;-81
2022/09/14 12:59:55;;;;;;;4.35;1.80;;;;;;;;;;5073667;28;20183;-81
2022/09/14 13:03:40;;;;;;;3.13;1.65;;;;;;;;;;5061257;28;20221;-81
2022/09/14 13:06:46;;;;;;;7.13;1.70;;;;;;;;;;5061987;28;20186;-81
2022/09/14 13:09:54;;;;;;;6.40;1.60;;;;;;;;;;5062053;28;20182;-81
2022/09/14 13:13:07;;;;;;;7.40;1.65;;;;;;;;;;5061566;28;20215;-81
2022/09/14 13:16:16;;;;;;;2.88;1.50;;;;;;;;;;5073215;28;20175;-81
2022/09/14 13:19:25;;;;;;;3.63;1.40;;;;;;;;;;5072879;28;20192;-81
2022/09/14 13:22:31;;;;;;;3.90;1.58;;;;;;;;;;5072690;28;20208;-81
2022/09/14 13:25:37;;;;;;;5.25;1.73;;;;;;;;;;5062874;28;20188;-81
2022/09/14 13:28:46;;;;;;;10.02;1.92;;;;;;;;;;5077042;28;20176;-81
2022/09/14 13:31:50;;;;;;;4.80;1.50;;;;;;;;;;5076568;28;20602;-81
2022/09/14 13:34:54;;;;;;;6.10;2.00;;;;;;;;;;5076768;28;20193;-81
2022/09/14 13:38:05;;;;;;;3.80;1.55;;;;;;;;;;5076701;28;20663;-80
2022/09/14 13:41:14;;;;;;;4.35;1.73;;;;;;;;;;5065190;28;20210;-81
2022/09/14 13:44:31;;;;;;;3.88;1.45;;;;;;;;;;5067294;28;20187;-82
2022/09/14 13:47:38;;;;;;;3.10;1.70;;;;;;;;;;5065220;28;20182;-81
2022/09/14 13:50:45;;;;;;;7.50;1.88;;;;;;;;;;5060271;28;20187;-81
2022/09/14 13:53:55;;;;;;;4.63;2.00;;;;;;;;;;5064742;28;20225;-80
2022/09/14 13:57:17;;;;;;;8.68;1.77;;;;;;;;;;5077017;28;20199;-81
2022/09/14 14:00:21;;;;;;;3.88;1.83;;;;;;;;;;5066063;28;20185;-80
2022/09/14 14:03:37;;;;;;;4.97;1.90;;;;;;;;;;5077847;28;20173;-81
2022/09/14 14:06:41;;;;;;;2.75;1.40;;;;;;;;;;5077750;28;20679;-81
2022/09/14 14:09:51;;;;;;;5.93;1.92;;;;;;;;;;5065045;28;20190;-81
2022/09/14 14:12:56;;;;;;;4.65;2.00;;;;;;;;;;5076236;28;20221;-81
2022/09/14 14:16:16;;;;;;;4.82;1.80;;;;;;;;;;5076840;28;20183;-80
2022/09/14 14:19:28;;;;;;;6.95;2.00;;;;;;;;;;5064583;28;20182;-80
2022/09/14 14:22:34;;;;;;;4.30;1.88;;;;;;;;;;5075795;28;20208;-81
2022/09/14 14:25:53;;;;;;;7.18;1.83;;;;;;;;;;5064780;28;20189;-81
2022/09/14 14:29:07;;;;;;;4.80;1.90;;;;;;;;;;5064690;28;20658;-82
2022/09/14 14:32:11;;;;;;;16.70;2.65;;;;;;;;;;5080262;28;20218;-81
2022/09/14 14:35:18;;;;;;;22.67;4.35;;;;;;;;;;5097887;28;20172;-81
2022/09/14 14:38:23;;;;;;;16.60;3.15;;;;;;;;;;5082050;28;20196;-80
2022/09/14 14:41:28;;;;;;;5.65;2.20;;;;;;;;;;5070672;28;20213;-80
2022/09/14 14:44:33;;;;;;;14.07;3.30;;;;;;;;;;5068045;28;20200;-79
2022/09/14 14:47:37;;;;;;;15.77;2.33;;;;;;;;;;5080568;28;20195;-79
2022/09/14 14:50:42;;;;;;;9.27;2.00;;;;;;;;;;5087448;28;20180;-80
2022/09/14 14:53:46;;;;;;;4.17;1.20;;;;;;;;;;5083774;28;20186;-80
2022/09/14 14:56:51;;;;;;;3.40;0.90;;;;;;;;;;5071353;28;20554;-80
2022/09/14 14:59:56;;;;;;;2.30;1.00;;;;;;;;;;5083431;28;20271;-81
2022/09/14 15:03:00;;;;;;;2.60;0.97;;;;;;;;;;5078117;28;20562;-79
2022/09/14 15:06:22;;;;;;;4.13;0.70;;;;;;;;;;5078676;28;20175;-80
2022/09/14 15:09:31;;;;;;;1.00;0.80;;;;;;;;;;5066685;28;20179;-79
2022/09/14 15:12:35;;;;;;;2.37;1.00;;;;;;;;;;5067365;28;20219;-79
2022/09/14 15:15:41;;;;;;;1.20;0.80;;;;;;;;;;5079844;28;20187;-77
2022/09/14 15:18:45;;;;;;;6.63;2.10;;;;;;;;;;5087237;28;20639;-77
2022/09/14 15:21:49;;;;;;;3.63;1.40;;;;;;;;;;5075678;28;20207;-77
2022/09/14 15:24:54;;;;;;;6.80;1.47;;;;;;;;;;5076092;28;20195;-77
2022/09/14 15:27:58;;;;;;;6.13;1.30;;;;;;;;;;5076410;28;20203;-77
2022/09/14 15:31:04;;;;;;;4.20;1.30;;;;;;;;;;5076123;28;20194;-78
2022/09/14 15:34:08;;;;;;;5.63;1.30;;;;;;;;;;5076268;28;20183;-78
2022/09/14 15:37:13;;;;;;;5.53;1.40;;;;;;;;;;5077006;28;20187;-77
2022/09/14 15:40:17;;;;;;;6.63;1.30;;;;;;;;;;5064695;28;20179;-78
2022/09/14 15:43:21;;;;;;;2.27;1.10;;;;;;;;;;5064686;28;20536;-77
2022/09/14 15:46:25;;;;;;;5.50;1.30;;;;;;;;;;5075510;28;20180;-78
2022/09/14 15:49:29;;;;;;;2.87;1.30;;;;;;;;;;5076132;28;20199;-78
2022/09/14 15:52:37;;;;;;;4.80;1.60;;;;;;;;;;5074890;28;20227;-78
2022/09/14 15:55:43;;;;;;;3.37;1.30;;;;;;;;;;5074748;28;20199;-77
2022/09/14 15:58:47;;;;;;;5.30;1.60;;;;;;;;;;5076709;28;20187;-78
2022/09/14 16:01:53;;;;;;;8.53;1.50;;;;;;;;;;5074394;28;20314;-77
2022/09/14 16:04:57;;;;;;;7.47;2.00;;;;;;;;;;5065526;28;20175;-78
2022/09/14 16:08:01;;;;;;;4.80;1.87;;;;;;;;;;5076983;28;20176;-78
2022/09/14 16:11:07;;;;;;;7.17;1.40;;;;;;;;;;5076649;28;20222;-78
2022/09/14 16:14:11;;;;;;;4.07;1.70;;;;;;;;;;5074054;28;20176;-78
2022/09/14 16:17:16;;;;;;;4.90;1.70;;;;;;;;;;5075658;28;20183;-78
2022/09/14 16:20:21;;;;;;;6.17;1.53;;;;;;;;;;5076230;28;20180;-78
2022/09/14 16:23:25;;;;;;;4.90;1.80;;;;;;;;;;5092829;28;20171;-78
2022/09/14 16:26:32;;;;;;;3.63;1.60;;;;;;;;;;5091794;28;20183;-78
2022/09/14 16:29:38;;;;;;;3.13;1.90;;;;;;;;;;5090358;28;20176;-78
2022/09/14 16:32:43;;;;;;;4.60;2.13;;;;;;;;;;5075124;28;20222;-78
2022/09/14 16:35:48;;;;;;;2.60;1.90;;;;;;;;;;5076205;28;20275;-78
2022/09/14 16:38:55;;;;;;;3.30;1.83;;;;;;;;;;5075999;28;20516;-78
2022/09/14 16:41:59;;;;;;;5.83;2.00;;;;;;;;;;5075445;28;20210;-78
2022/09/14 16:45:04;;;;;;;5.27;1.80;;;;;;;;;;5075943;28;20180;-79
2022/09/14 16:48:08;;;;;;;4.83;2.13;;;;;;;;;;5075133;28;20183;-77
2022/09/14 16:51:14;;;;;;;4.80;1.70;;;;;;;;;;5075195;28;20218;-79
2022/09/14 16:54:20;;;;;;;4.67;1.93;;;;;;;;;;5077859;28;20171;-79
2022/09/14 16:57:25;;;;;;;2.33;1.73;;;;;;;;;;5079284;28;20175;-79
2022/09/14 17:00:30;;;;;;;4.70;2.10;;;;;;;;;;5078891;28;20555;-78
2022/09/14 17:03:35;;;;;;;3.07;2.20;;;;;;;;;;5078890;28;20184;-78
2022/09/14 17:06:42;;;;;;;4.43;2.13;;;;;;;;;;5077359;28;20199;-78
2022/09/14 17:09:47;;;;;;;4.47;2.43;;;;;;;;;;5079900;28;20184;-78
2022/09/14 17:12:51;;;;;;;4.33;1.90;;;;;;;;;;5082577;28;20685;-79
2022/09/14 17:16:04;;;;;;;5.30;2.60;;;;;;;;;;5079078;28;20179;-78
2022/09/14 17:19:09;;;;;;;4.93;2.47;;;;;;;;;;5091928;28;20634;-78
2022/09/14 17:22:14;;;;;;;3.30;1.90;;;;;;;;;;5078299;28;20211;-77
2022/09/14 17:25:18;;;;;;;3.10;2.10;;;;;;;;;;5077464;28;20192;-78
2022/09/14 17:28:27;;;;;;;3.77;1.80;;;;;;;;;;5075486;28;20195;-77
2022/09/14 17:31:34;;;;;;;3.23;1.97;;;;;;;;;;5081558;28;20564;-80
2022/09/14 17:34:38;;;;;;;6.43;2.27;;;;;;;;;;5079706;28;20179;-80
2022/09/14 17:37:42;;;;;;;3.70;1.93;;;;;;;;;;5078988;28;20528;-80
2022/09/14 17:40:47;;;;;;;6.37;2.20;;;;;;;;;;5067606;28;20179;-79
2022/09/14 17:43:54;;;;;;;4.90;2.50;;;;;;;;;;5078193;28;20179;-79
2022/09/14 17:46:57;;;;;;;3.40;2.07;;;;;;;;;;5077086;28;20183;-79
2022/09/14 17:50:02;;;;;;;2.83;2.40;;;;;;;;;;5065673;28;20180;-81
2022/09/14 17:53:07;;;;;;;3.40;2.50;;;;;;;;;;5066233;28;20215;-79
2022/09/14 17:56:13;;;;;;;4.27;2.57;;;;;;;;;;5076778;28;20203;-80
2022/09/14 17:59:19;;;;;;;8.03;2.63;;;;;;;;;;5065252;28;20180;-79
2022/09/14 18:02:23;;;;;;;4.83;2.27;;;;;;;;;;5076846;28;20207;-79
2022/09/14 18:05:28;;;;;;;2.90;2.53;;;;;;;;;;5076471;28;20195;-79
2022/09/14 18:08:33;;;;;;;6.10;2.37;;;;;;;;;;5075730;28;20187;-82
2022/09/14 18:11:38;;;;;;;5.53;2.50;;;;;;;;;;5066649;28;20207;-80
2022/09/14 18:14:43;;;;;;;4.80;2.53;;;;;;;;;;5081275;28;20176;-80
2022/09/14 18:17:47;;;;;;;4.53;2.30;;;;;;;;;;5069107;28;20179;-80
2022/09/14 18:20:51;;;;;;;6.13;2.37;;;;;;;;;;5069152;28;20175;-79
2022/09/14 18:23:55;;;;;;;7.00;2.20;;;;;;;;;;5081487;28;20195;-80
2022/09/14 18:27:00;;;;;;;3.30;1.90;;;;;;;;;;5071984;28;20183;-80
2022/09/14 18:30:05;;;;;;;3.07;2.10;;;;;;;;;;5071436;28;20623;-77
2022/09/14 18:33:09;;;;;;;5.17;2.30;;;;;;;;;;5078590;28;20222;-77
2022/09/14 18:36:14;;;;;;;12.07;2.17;;;;;;;;;;5076533;28;20195;-77
2022/09/14 18:39:17;;;;;;;7.67;1.70;;;;;;;;;;5076201;28;20176;-76
2022/09/14 18:42:22;;;;;;;5.57;2.53;;;;;;;;;;5064101;28;20215;-77